Time;durP1;ratioP1;P1;durP2;ratioP2;P2;SDS_P1;SDS_P2;PMS_P1;PMS_P2;Temp;Humidity;BMP_temperature;BMP_pressure;BME280_temperature;BME280_humidity;BME280_pressure;Samples;Min_cycle;Max_cycle;Signal;HPM_P1;HPM_P2
2022/03/10 00:02:02;;;;;;;12.17;9.70;;;;;;;-145.14;100.00;70583.66;5017335;28;20185;-69
2022/03/10 00:04:28;;;;;;;10.67;8.30;;;;;;;-145.14;100.00;70583.66;5010520;28;20494;-69
2022/03/10 00:06:54;;;;;;;11.70;9.70;;;;;;;-145.14;100.00;70583.66;5012004;28;22242;-69
2022/03/10 00:09:19;;;;;;;9.33;8.33;;;;;;;-145.14;100.00;70583.66;5016515;28;20990;-69
2022/03/10 00:11:44;;;;;;;10.97;8.50;;;;;;;-145.14;100.00;70583.66;5023673;28;20198;-69
2022/03/10 00:14:10;;;;;;;12.37;8.07;;;;;;;-145.14;100.00;70583.66;5022269;28;20218;-69
2022/03/10 00:16:37;;;;;;;11.13;8.43;;;;;;;-145.14;100.00;70583.66;5026894;28;20528;-69
2022/03/10 00:19:03;;;;;;;13.20;8.90;;;;;;;-145.14;100.00;70583.66;5023811;28;20449;-69
2022/03/10 00:21:28;;;;;;;10.47;8.53;;;;;;;-145.14;100.00;70583.66;5026529;28;20451;-69
2022/03/10 00:23:54;;;;;;;10.60;8.60;;;;;;;-145.14;100.00;70583.66;5027313;28;20590;-69
2022/03/10 00:26:19;;;;;;;13.10;9.73;;;;;;;-145.14;100.00;70583.66;5022924;28;20307;-69
2022/03/10 00:28:44;;;;;;;11.30;8.90;;;;;;;-145.14;100.00;70583.66;5032305;28;20195;-68
2022/03/10 00:31:10;;;;;;;12.50;9.20;;;;;;;-145.14;100.00;70583.66;5027072;28;20656;-69
2022/03/10 00:33:35;;;;;;;12.53;9.07;;;;;;;-145.14;100.00;70583.66;5025815;28;20184;-69
2022/03/10 00:36:01;;;;;;;11.10;8.10;;;;;;;-145.14;100.00;70583.66;5020797;28;20703;-69
2022/03/10 00:38:26;;;;;;;10.10;8.70;;;;;;;-145.14;100.00;70583.66;5021167;28;20211;-69
2022/03/10 00:40:52;;;;;;;11.63;9.77;;;;;;;-145.14;100.00;70583.66;5029756;28;20180;-69
2022/03/10 00:43:17;;;;;;;13.93;8.50;;;;;;;-145.14;100.00;70583.66;5018784;28;20184;-69
2022/03/10 00:45:43;;;;;;;12.10;9.13;;;;;;;-145.14;100.00;70583.66;5025245;28;20215;-69
2022/03/10 00:48:09;;;;;;;15.80;9.63;;;;;;;-145.14;100.00;70583.66;5019740;28;20187;-69
2022/03/10 00:50:35;;;;;;;12.90;8.90;;;;;;;-145.14;100.00;70583.66;5026123;28;20249;-69
2022/03/10 00:53:00;;;;;;;13.13;9.60;;;;;;;-145.14;100.00;70583.66;5025055;28;20479;-68
2022/03/10 00:55:26;;;;;;;11.10;8.20;;;;;;;-145.14;100.00;70583.66;5023040;28;20450;-69
2022/03/10 00:57:51;;;;;;;13.43;8.97;;;;;;;-145.14;100.00;70583.66;5017295;28;20194;-69
2022/03/10 01:00:18;;;;;;;16.20;9.43;;;;;;;-145.14;100.00;70583.66;5025704;28;20188;-69
2022/03/10 01:02:44;;;;;;;11.67;9.33;;;;;;;-145.14;100.00;70583.66;5037405;28;20188;-69
2022/03/10 01:05:10;;;;;;;11.37;8.50;;;;;;;-145.14;100.00;70583.66;5024049;28;20471;-69
2022/03/10 01:07:37;;;;;;;14.10;10.10;;;;;;;-145.14;100.00;70583.66;5021106;28;20446;-69
2022/03/10 01:10:05;;;;;;;12.93;10.20;;;;;;;-145.14;100.00;70583.66;5025073;28;20439;-68
2022/03/10 01:12:31;;;;;;;11.13;8.40;;;;;;;-145.14;100.00;70583.66;5021667;28;20720;-69
2022/03/10 01:14:57;;;;;;;11.50;9.23;;;;;;;-145.14;100.00;70583.66;5026758;28;20469;-69
2022/03/10 01:17:23;;;;;;;13.77;10.00;;;;;;;-145.14;100.00;70583.66;5024739;28;20897;-69
2022/03/10 01:19:48;;;;;;;15.13;10.20;;;;;;;-145.14;100.00;70583.66;5025380;28;20179;-69
2022/03/10 01:22:14;;;;;;;12.13;9.60;;;;;;;-145.14;100.00;70583.66;5018765;28;20372;-68
2022/03/10 01:24:41;;;;;;;15.07;9.50;;;;;;;-145.14;100.00;70583.66;5020197;28;20205;-69
2022/03/10 01:27:07;;;;;;;15.60;8.70;;;;;;;-145.14;100.00;70583.66;5017944;28;20215;-69
2022/03/10 01:29:33;;;;;;;12.60;9.67;;;;;;;-145.14;100.00;70583.66;5020266;28;20589;-69
2022/03/10 01:31:59;;;;;;;13.50;9.27;;;;;;;-145.14;100.00;70583.66;5018511;28;20474;-69
2022/03/10 01:34:25;;;;;;;10.37;8.77;;;;;;;-145.14;100.00;70583.66;5022328;28;20831;-69
2022/03/10 01:36:51;;;;;;;11.60;9.17;;;;;;;-145.14;100.00;70583.66;5028437;28;20211;-69
2022/03/10 01:39:17;;;;;;;13.53;10.20;;;;;;;-145.14;100.00;70583.66;5027700;28;20664;-69
2022/03/10 01:41:43;;;;;;;11.50;9.80;;;;;;;-145.14;100.00;70583.66;5022371;28;20458;-69
2022/03/10 01:44:10;;;;;;;12.20;9.00;;;;;;;-145.14;100.00;70583.66;5023093;28;20240;-69
2022/03/10 01:46:36;;;;;;;13.40;9.83;;;;;;;-145.14;100.00;70583.66;5020188;28;20580;-69
2022/03/10 01:49:04;;;;;;;12.13;9.63;;;;;;;-145.14;100.00;70583.66;5014964;28;20451;-69
2022/03/10 01:51:29;;;;;;;12.80;9.53;;;;;;;-145.14;100.00;70583.66;5017980;28;20442;-69
2022/03/10 01:53:58;;;;;;;11.30;9.03;;;;;;;-145.14;100.00;70583.66;5020286;28;20461;-69
2022/03/10 01:56:24;;;;;;;15.90;9.30;;;;;;;-145.14;100.00;70583.66;5021737;28;20215;-69
2022/03/10 01:58:52;;;;;;;13.83;9.90;;;;;;;-145.14;100.00;70583.66;5018068;28;20447;-69
2022/03/10 02:01:18;;;;;;;17.73;11.10;;;;;;;-145.14;100.00;70583.66;5013686;28;20880;-69
2022/03/10 02:03:44;;;;;;;18.33;9.73;;;;;;;-145.14;100.00;70583.66;5019062;28;20463;-69
2022/03/10 02:06:11;;;;;;;12.57;9.77;;;;;;;-145.14;100.00;70583.66;5025554;28;20460;-69
2022/03/10 02:11:22;;;;;;;17.40;9.60;;;;;;;-145.14;100.00;70583.66;5018518;28;20533;-69
2022/03/10 02:13:48;;;;;;;11.87;9.70;;;;;;;-145.14;100.00;70583.66;5013056;28;20434;-69
2022/03/10 02:19:00;;;;;;;13.50;9.63;;;;;;;-145.14;100.00;70583.66;5019324;28;20266;-69
2022/03/10 02:21:26;;;;;;;14.93;10.10;;;;;;;-145.14;100.00;70583.66;5016584;28;20473;-69
2022/03/10 02:23:52;;;;;;;13.87;9.60;;;;;;;-145.14;100.00;70583.66;5021341;28;20461;-69
2022/03/10 02:26:18;;;;;;;14.70;9.27;;;;;;;-145.14;100.00;70583.66;5023918;28;20470;-69
2022/03/10 02:28:43;;;;;;;12.63;9.73;;;;;;;-145.14;100.00;70583.66;5017218;28;20980;-69
2022/03/10 02:31:10;;;;;;;11.30;9.70;;;;;;;-145.14;100.00;70583.66;5013899;28;20184;-69
2022/03/10 02:33:35;;;;;;;12.00;10.20;;;;;;;-145.14;100.00;70583.66;5020767;28;20184;-69
2022/03/10 02:36:01;;;;;;;11.57;9.73;;;;;;;-145.14;100.00;70583.66;5022386;28;20485;-69
2022/03/10 02:38:27;;;;;;;13.53;10.27;;;;;;;-145.14;100.00;70583.66;5022118;28;20205;-69
2022/03/10 02:40:53;;;;;;;16.40;10.77;;;;;;;-145.14;100.00;70583.66;5017142;28;20446;-69
2022/03/10 02:43:19;;;;;;;12.03;9.83;;;;;;;-145.14;100.00;70583.66;5020870;28;20305;-69
2022/03/10 02:45:46;;;;;;;16.40;9.80;;;;;;;-145.14;100.00;70583.66;5026597;28;20313;-69
2022/03/10 02:48:12;;;;;;;13.20;10.77;;;;;;;-145.14;100.00;70583.66;5011224;23;20531;-74
2022/03/10 02:50:38;;;;;;;12.70;10.27;;;;;;;-145.14;100.00;70583.66;4997188;28;20439;-75
2022/03/10 02:53:05;;;;;;;11.43;9.63;;;;;;;-145.14;100.00;70583.66;5000379;28;20582;-75
2022/03/10 02:55:30;;;;;;;14.70;10.70;;;;;;;-145.14;100.00;70583.66;4996847;28;20374;-75
2022/03/10 02:57:56;;;;;;;13.17;10.57;;;;;;;-145.14;100.00;70583.66;4996929;28;21354;-75
2022/03/10 03:00:22;;;;;;;14.90;11.30;;;;;;;-145.14;100.00;70583.66;4997263;28;21016;-75
2022/03/10 03:02:47;;;;;;;12.33;9.87;;;;;;;-145.14;100.00;70583.66;4997203;28;20208;-75
2022/03/10 03:05:14;;;;;;;13.07;10.50;;;;;;;-145.14;100.00;70583.66;4998609;28;20655;-75
2022/03/10 03:07:40;;;;;;;14.40;9.97;;;;;;;-145.14;100.00;70583.66;4989095;28;20209;-75
2022/03/10 03:10:07;;;;;;;12.47;10.17;;;;;;;-145.14;100.00;70583.66;4994863;28;20440;-75
2022/03/10 03:12:33;;;;;;;13.67;10.37;;;;;;;-145.14;100.00;70583.66;4997843;28;20450;-74
2022/03/10 03:14:59;;;;;;;11.60;9.07;;;;;;;-145.14;100.00;70583.66;4997703;28;20452;-75
2022/03/10 03:17:25;;;;;;;12.30;9.17;;;;;;;-145.14;100.00;70583.66;4996986;28;20550;-77
2022/03/10 03:19:52;;;;;;;13.77;10.30;;;;;;;-145.14;100.00;70583.66;5002219;28;20523;-75
2022/03/10 03:22:18;;;;;;;12.00;8.93;;;;;;;-145.14;100.00;70583.66;4999043;28;20447;-75
2022/03/10 03:24:45;;;;;;;12.80;10.00;;;;;;;-145.14;100.00;70583.66;4998644;28;20479;-75
2022/03/10 03:27:11;;;;;;;12.13;10.67;;;;;;;-145.14;100.00;70583.66;4996324;28;20693;-75
2022/03/10 03:29:37;;;;;;;15.13;9.60;;;;;;;-145.14;100.00;70583.66;5001791;28;20479;-75
2022/03/10 03:32:03;;;;;;;15.20;10.07;;;;;;;-145.14;100.00;70583.66;4995295;28;20483;-75
2022/03/10 03:34:29;;;;;;;12.20;10.73;;;;;;;-145.14;100.00;70583.66;4999163;28;20192;-75
2022/03/10 03:36:54;;;;;;;12.93;10.47;;;;;;;-145.14;100.00;70583.66;4995380;28;20443;-76
2022/03/10 03:39:20;;;;;;;15.10;10.93;;;;;;;-145.14;100.00;70583.66;4998126;28;20196;-76
2022/03/10 03:41:45;;;;;;;11.80;9.60;;;;;;;-145.14;100.00;70583.66;5002265;28;20188;-76
2022/03/10 03:44:11;;;;;;;11.97;9.97;;;;;;;-145.14;100.00;70583.66;4999478;28;20626;-76
2022/03/10 03:46:38;;;;;;;14.50;10.90;;;;;;;-145.14;100.00;70583.66;4998076;28;20239;-76
2022/03/10 03:49:04;;;;;;;16.10;10.30;;;;;;;-145.14;100.00;70583.66;4990625;28;20304;-76
2022/03/10 03:51:30;;;;;;;11.00;9.80;;;;;;;-145.14;100.00;70583.66;5000110;28;20557;-76
2022/03/10 03:53:55;;;;;;;15.10;11.10;;;;;;;-145.14;100.00;70583.66;4994805;28;20446;-77
2022/03/10 03:56:21;;;;;;;13.63;10.53;;;;;;;-145.14;100.00;70583.66;4996231;28;20275;-76
2022/03/10 03:58:46;;;;;;;13.00;10.10;;;;;;;-145.14;100.00;70583.66;4995995;28;20603;-76
2022/03/10 04:01:12;;;;;;;15.80;10.10;;;;;;;-145.14;100.00;70583.66;4993428;28;20569;-77
2022/03/10 04:03:37;;;;;;;15.07;10.77;;;;;;;-145.14;100.00;70583.66;4993503;28;20835;-76
2022/03/10 04:06:03;;;;;;;10.70;9.60;;;;;;;-145.14;100.00;70583.66;4987573;28;20197;-77
2022/03/10 04:08:28;;;;;;;13.43;11.07;;;;;;;-145.14;100.00;70583.66;4985816;28;20223;-77
2022/03/10 04:10:54;;;;;;;14.23;11.33;;;;;;;-145.14;100.00;70583.66;4997118;28;20750;-77
2022/03/10 04:13:21;;;;;;;12.70;10.50;;;;;;;-145.14;100.00;70583.66;4994800;28;21886;-76
2022/03/10 04:15:49;;;;;;;13.37;10.27;;;;;;;-145.14;100.00;70583.66;4995839;28;20652;-76
2022/03/10 04:18:16;;;;;;;14.13;10.33;;;;;;;-145.14;100.00;70583.66;4998581;28;20464;-77
2022/03/10 04:20:41;;;;;;;14.90;11.07;;;;;;;-145.14;100.00;70583.66;4997037;28;20450;-76
2022/03/10 04:23:07;;;;;;;17.13;10.70;;;;;;;-145.14;100.00;70583.66;4998381;28;20527;-77
2022/03/10 04:25:33;;;;;;;18.10;10.20;;;;;;;-145.14;100.00;70583.66;4992811;28;20221;-77
2022/03/10 04:27:59;;;;;;;14.43;10.00;;;;;;;-145.14;100.00;70583.66;5001955;28;21115;-77
2022/03/10 04:30:25;;;;;;;16.97;9.80;;;;;;;-145.14;100.00;70583.66;4997885;28;20224;-77
2022/03/10 04:32:51;;;;;;;12.93;9.63;;;;;;;-145.14;100.00;70583.66;4995823;28;20530;-77
2022/03/10 04:35:18;;;;;;;15.70;10.90;;;;;;;-145.14;100.00;70583.66;4996742;28;20927;-77
2022/03/10 04:37:47;;;;;;;17.53;10.00;;;;;;;-145.14;100.00;70583.66;4994020;28;21037;-77
2022/03/10 04:40:13;;;;;;;13.13;10.40;;;;;;;-145.14;100.00;70583.66;4991459;28;20514;-77
2022/03/10 04:42:39;;;;;;;15.80;11.00;;;;;;;-145.14;100.00;70583.66;5001044;28;20491;-76
2022/03/10 04:45:06;;;;;;;11.10;9.67;;;;;;;-145.14;100.00;70583.66;4992486;28;20220;-76
2022/03/10 04:47:33;;;;;;;14.20;9.97;;;;;;;-145.14;100.00;70583.66;4997495;28;20470;-77
2022/03/10 04:49:58;;;;;;;13.10;9.47;;;;;;;-145.14;100.00;70583.66;5000557;28;20443;-77
2022/03/10 04:52:28;;;;;;;15.43;11.23;;;;;;;-145.14;100.00;70583.66;4993084;28;20455;-77
2022/03/10 04:54:54;;;;;;;12.27;10.40;;;;;;;-145.14;100.00;70583.66;5007308;28;20255;-77
2022/03/10 04:57:21;;;;;;;13.87;10.80;;;;;;;-145.14;100.00;70583.66;5003319;28;20525;-78
2022/03/10 04:59:46;;;;;;;12.53;10.80;;;;;;;-145.14;100.00;70583.66;4999431;28;20448;-78
2022/03/10 05:02:12;;;;;;;12.37;10.40;;;;;;;-145.14;100.00;70583.66;4987646;28;20443;-77
2022/03/10 05:04:37;;;;;;;13.23;10.50;;;;;;;-145.14;100.00;70583.66;4993395;28;20272;-77
2022/03/10 05:07:04;;;;;;;12.50;9.30;;;;;;;-145.14;100.00;70583.66;4984004;28;20247;-77
2022/03/10 05:09:30;;;;;;;13.63;10.67;;;;;;;-145.14;100.00;70583.66;4995848;28;20208;-77
2022/03/10 05:11:55;;;;;;;12.10;10.07;;;;;;;-145.14;100.00;70583.66;4997146;28;20487;-77
2022/03/10 05:14:21;;;;;;;12.70;9.33;;;;;;;-145.14;100.00;70583.66;5002118;28;20436;-77
2022/03/10 05:16:46;;;;;;;12.47;9.90;;;;;;;-145.14;100.00;70583.66;4992068;28;21032;-78
2022/03/10 05:19:13;;;;;;;11.70;10.43;;;;;;;-145.14;100.00;70583.66;4996687;28;20808;-77
2022/03/10 05:21:38;;;;;;;12.90;10.27;;;;;;;-145.14;100.00;70583.66;5002116;28;20189;-77
2022/03/10 05:24:04;;;;;;;13.80;10.73;;;;;;;-145.14;100.00;70583.66;4990545;28;20464;-77
2022/03/10 05:26:33;;;;;;;12.97;10.17;;;;;;;-145.14;100.00;70583.66;4998603;28;20185;-77
2022/03/10 05:28:58;;;;;;;14.03;10.53;;;;;;;-145.14;100.00;70583.66;4996721;28;20928;-77
2022/03/10 05:31:24;;;;;;;10.80;9.20;;;;;;;-145.14;100.00;70583.66;4992125;28;20998;-77
2022/03/10 05:33:49;;;;;;;10.90;9.60;;;;;;;-145.14;100.00;70583.66;4997682;28;20200;-77
2022/03/10 05:36:14;;;;;;;12.90;10.43;;;;;;;-145.14;100.00;70583.66;4988078;28;20270;-78
2022/03/10 05:38:40;;;;;;;15.43;11.10;;;;;;;-145.14;100.00;70583.66;4990896;28;20715;-77
2022/03/10 05:41:05;;;;;;;13.80;10.40;;;;;;;-145.14;100.00;70583.66;4997931;28;20181;-77
2022/03/10 05:43:32;;;;;;;16.00;10.70;;;;;;;-145.14;100.00;70583.66;4992854;28;20248;-77
2022/03/10 05:45:58;;;;;;;13.17;11.20;;;;;;;-145.14;100.00;70583.66;4988565;28;20665;-76
2022/03/10 05:48:24;;;;;;;18.53;11.97;;;;;;;-145.14;100.00;70583.66;4995268;28;20470;-77
2022/03/10 05:50:50;;;;;;;11.70;10.00;;;;;;;-145.14;100.00;70583.66;4987797;28;20444;-78
2022/03/10 05:53:15;;;;;;;13.80;9.73;;;;;;;-145.14;100.00;70583.66;4999175;28;20444;-77
2022/03/10 05:55:41;;;;;;;13.87;11.00;;;;;;;-145.14;100.00;70583.66;4990360;28;20185;-77
2022/03/10 05:58:06;;;;;;;13.57;11.03;;;;;;;-145.14;100.00;70583.66;4993678;28;20344;-78
2022/03/10 06:00:32;;;;;;;13.27;10.27;;;;;;;-145.14;100.00;70583.66;4995988;28;20185;-78
2022/03/10 06:02:58;;;;;;;14.53;9.97;;;;;;;-145.14;100.00;70583.66;5001157;28;20160;-77
2022/03/10 06:05:23;;;;;;;16.17;13.07;;;;;;;-145.14;100.00;70583.66;4977184;28;20236;-78
2022/03/10 06:07:49;;;;;;;16.30;12.07;;;;;;;-145.14;100.00;70583.66;4984466;28;20212;-77
2022/03/10 06:10:14;;;;;;;16.20;12.40;;;;;;;-145.14;100.00;70583.66;4965983;28;20184;-78
2022/03/10 06:12:40;;;;;;;15.93;10.93;;;;;;;-145.14;100.00;70583.66;4993181;28;20193;-78
2022/03/10 06:15:07;;;;;;;15.33;12.20;;;;;;;-145.14;100.00;70583.66;4989479;28;20231;-79
2022/03/10 06:17:33;;;;;;;14.03;9.97;;;;;;;-145.14;100.00;70583.66;4988353;28;20838;-79
2022/03/10 06:20:00;;;;;;;13.83;9.23;;;;;;;-145.14;100.00;70583.66;4992920;28;20440;-78
2022/03/10 06:22:29;;;;;;;12.77;10.30;;;;;;;-145.14;100.00;70583.66;4999704;28;20436;-78
2022/03/10 06:24:56;;;;;;;13.57;10.20;;;;;;;-145.14;100.00;70583.66;4990672;28;20992;-78
2022/03/10 06:27:22;;;;;;;12.47;9.90;;;;;;;-145.14;100.00;70583.66;4984872;28;20887;-78
2022/03/10 06:29:48;;;;;;;11.63;10.43;;;;;;;-145.14;100.00;70583.66;4988862;28;20507;-78
2022/03/10 06:32:17;;;;;;;14.53;11.60;;;;;;;-145.14;100.00;70583.66;4989069;28;20531;-78
2022/03/10 06:34:42;;;;;;;15.83;11.37;;;;;;;-145.14;100.00;70583.66;4991639;28;20439;-78
2022/03/10 06:37:08;;;;;;;13.50;10.90;;;;;;;-145.14;100.00;70583.66;4984079;28;21063;-78
2022/03/10 06:39:34;;;;;;;18.57;12.20;;;;;;;-145.14;100.00;70583.66;4993467;28;20685;-78
2022/03/10 06:42:00;;;;;;;19.13;11.40;;;;;;;-145.14;100.00;70583.66;4995970;28;20548;-78
2022/03/10 06:44:25;;;;;;;13.33;10.93;;;;;;;-145.14;100.00;70583.66;4989320;28;20474;-78
2022/03/10 06:46:52;;;;;;;16.03;10.97;;;;;;;-145.14;100.00;70583.66;4996626;28;20443;-78
2022/03/10 06:49:18;;;;;;;13.33;10.57;;;;;;;-145.14;100.00;70583.66;4991025;28;20284;-78
2022/03/10 06:51:43;;;;;;;18.70;10.63;;;;;;;-145.14;100.00;70583.66;4996628;28;20531;-77
2022/03/10 06:54:10;;;;;;;13.20;10.63;;;;;;;-145.14;100.00;70583.66;4995001;28;21963;-80
2022/03/10 06:56:37;;;;;;;14.27;10.43;;;;;;;-145.14;100.00;70583.66;4992033;28;20240;-78
2022/03/10 06:59:03;;;;;;;13.60;10.80;;;;;;;-145.14;100.00;70583.66;4996049;28;20455;-78
2022/03/10 07:01:28;;;;;;;13.60;11.20;;;;;;;-145.14;100.00;70583.66;4995974;28;20501;-77
2022/03/10 07:03:57;;;;;;;12.70;11.30;;;;;;;-145.14;100.00;70583.66;4990886;28;20616;-78
2022/03/10 07:06:23;;;;;;;12.90;10.50;;;;;;;-145.14;100.00;70583.66;4992346;28;20177;-77
2022/03/10 07:08:49;;;;;;;13.43;10.67;;;;;;;-145.14;100.00;70583.66;4984466;28;20468;-77
2022/03/10 07:11:14;;;;;;;14.83;10.43;;;;;;;-145.14;100.00;70583.66;4988618;28;20443;-77
2022/03/10 07:13:40;;;;;;;13.87;11.50;;;;;;;-145.14;100.00;70583.66;4995502;28;20255;-77
2022/03/10 07:16:05;;;;;;;14.07;10.97;;;;;;;-145.14;100.00;70583.66;4983300;28;20705;-77
2022/03/10 07:18:31;;;;;;;12.97;9.90;;;;;;;-145.14;100.00;70583.66;4991806;28;20298;-77
2022/03/10 07:20:56;;;;;;;12.17;9.90;;;;;;;-145.14;100.00;70583.66;4998088;28;20658;-77
2022/03/10 07:23:22;;;;;;;13.60;11.33;;;;;;;-145.14;100.00;70583.66;4991926;28;20177;-77
2022/03/10 07:25:47;;;;;;;13.43;10.83;;;;;;;-145.14;100.00;70583.66;4989912;28;20193;-77
2022/03/10 07:28:13;;;;;;;13.00;9.83;;;;;;;-145.14;100.00;70583.66;4987974;28;20213;-77
2022/03/10 07:30:38;;;;;;;12.83;10.07;;;;;;;-145.14;100.00;70583.66;4991044;28;20197;-77
2022/03/10 07:33:04;;;;;;;13.70;10.43;;;;;;;-145.14;100.00;70583.66;4982464;28;20195;-76
2022/03/10 07:35:29;;;;;;;12.10;9.80;;;;;;;-145.14;100.00;70583.66;4984210;28;20960;-77
2022/03/10 07:37:58;;;;;;;13.97;10.13;;;;;;;-145.14;100.00;70583.66;4982250;28;20217;-77
2022/03/10 07:40:23;;;;;;;14.93;10.30;;;;;;;-145.14;100.00;70583.66;4983328;28;20192;-78
2022/03/10 07:42:49;;;;;;;12.13;10.50;;;;;;;-145.14;100.00;70583.66;4992983;28;20443;-77
2022/03/10 07:45:14;;;;;;;11.73;9.90;;;;;;;-145.14;100.00;70583.66;4998125;28;20744;-77
2022/03/10 07:47:40;;;;;;;11.67;9.97;;;;;;;-145.14;100.00;70583.66;4995484;28;20302;-77
2022/03/10 07:50:07;;;;;;;18.83;10.10;;;;;;;-145.14;100.00;70583.66;4995386;28;20276;-77
2022/03/10 07:52:33;;;;;;;17.60;10.70;;;;;;;-145.14;100.00;70583.66;4999155;28;20185;-77
2022/03/10 07:54:58;;;;;;;13.70;10.43;;;;;;;-145.14;100.00;70583.66;4992008;28;20780;-77
2022/03/10 07:57:24;;;;;;;12.33;10.00;;;;;;;-145.14;100.00;70583.66;4995635;28;20472;-78
2022/03/10 07:59:50;;;;;;;17.33;10.90;;;;;;;-145.14;100.00;70583.66;4997047;28;20787;-77
2022/03/10 08:02:15;;;;;;;12.30;10.03;;;;;;;-145.14;100.00;70583.66;4983968;28;20285;-77
2022/03/10 08:04:41;;;;;;;13.13;11.20;;;;;;;-145.14;100.00;70583.66;4993008;28;21022;-77
2022/03/10 08:07:07;;;;;;;12.83;10.60;;;;;;;-145.14;100.00;70583.66;4991075;28;20224;-76
2022/03/10 08:09:32;;;;;;;14.20;10.30;;;;;;;-145.14;100.00;70583.66;4991063;28;20182;-77
2022/03/10 08:11:57;;;;;;;13.93;11.03;;;;;;;-145.14;100.00;70583.66;4981184;28;20267;-77
2022/03/10 08:14:23;;;;;;;18.50;11.50;;;;;;;-145.14;100.00;70583.66;4990500;28;20185;-77
2022/03/10 08:16:49;;;;;;;11.00;9.43;;;;;;;-145.14;100.00;70583.66;4992104;28;20185;-77
2022/03/10 08:19:14;;;;;;;16.23;11.60;;;;;;;-145.14;100.00;70583.66;4994167;28;20938;-77
2022/03/10 08:21:40;;;;;;;13.37;10.37;;;;;;;-145.14;100.00;70583.66;4993983;28;20719;-76
2022/03/10 08:24:06;;;;;;;14.97;9.87;;;;;;;-145.14;100.00;70583.66;4990448;28;20327;-76
2022/03/10 08:26:32;;;;;;;13.60;10.63;;;;;;;-145.14;100.00;70583.66;4991411;28;21141;-77
2022/03/10 08:28:57;;;;;;;12.77;9.93;;;;;;;-145.14;100.00;70583.66;4987649;28;20468;-77
2022/03/10 08:31:23;;;;;;;11.90;10.17;;;;;;;-145.14;100.00;70583.66;4986174;28;20448;-76
2022/03/10 08:33:50;;;;;;;17.70;10.90;;;;;;;-145.14;100.00;70583.66;4984351;28;20311;-76
2022/03/10 08:36:16;;;;;;;12.97;9.63;;;;;;;-145.14;100.00;70583.66;4990245;28;20439;-76
2022/03/10 08:38:41;;;;;;;16.30;10.30;;;;;;;-145.14;100.00;70583.66;4989019;28;20459;-77
2022/03/10 08:41:08;;;;;;;14.33;9.93;;;;;;;-145.14;100.00;70583.66;4996106;28;20239;-76
2022/03/10 08:43:33;;;;;;;14.43;10.43;;;;;;;-145.14;100.00;70583.66;4994866;28;20189;-76
2022/03/10 08:46:01;;;;;;;13.60;10.17;;;;;;;-145.14;100.00;70583.66;4992624;28;20440;-76
2022/03/10 08:48:27;;;;;;;11.70;10.33;;;;;;;-145.14;100.00;70583.66;4985831;23;20345;-67
2022/03/10 08:50:52;;;;;;;12.77;10.83;;;;;;;-145.14;100.00;70583.66;4969412;28;20452;-68
2022/03/10 08:53:18;;;;;;;17.10;11.43;;;;;;;-145.14;100.00;70583.66;4971950;28;20190;-68
2022/03/10 08:55:44;;;;;;;11.73;10.17;;;;;;;-145.14;100.00;70583.66;4957031;28;20185;-69
2022/03/10 08:58:10;;;;;;;13.33;10.53;;;;;;;-145.14;100.00;70583.66;4969039;28;20217;-68
2022/03/10 09:00:35;;;;;;;12.67;10.40;;;;;;;-145.14;100.00;70583.66;4977707;28;20604;-68
2022/03/10 09:03:01;;;;;;;13.47;9.70;;;;;;;-145.14;100.00;70583.66;4979694;28;20506;-68
2022/03/10 09:05:26;;;;;;;12.20;10.07;;;;;;;-145.14;100.00;70583.66;4972815;28;20352;-68
2022/03/10 09:07:52;;;;;;;14.53;10.80;;;;;;;-145.14;100.00;70583.66;4967543;28;20794;-68
2022/03/10 09:10:17;;;;;;;12.50;9.70;;;;;;;-145.14;100.00;70583.66;4946803;28;20193;-69
2022/03/10 09:12:43;;;;;;;11.10;9.27;;;;;;;-145.14;100.00;70583.66;4972054;28;20252;-68
2022/03/10 09:15:09;;;;;;;11.90;10.03;;;;;;;-145.14;100.00;70583.66;4969605;28;20184;-68
2022/03/10 09:17:35;;;;;;;13.77;10.93;;;;;;;-145.14;100.00;70583.66;4969312;28;20228;-68
2022/03/10 09:20:01;;;;;;;13.33;10.73;;;;;;;-145.14;100.00;70583.66;4968968;28;20831;-68
2022/03/10 09:22:26;;;;;;;11.73;9.77;;;;;;;-145.14;100.00;70583.66;4969699;28;20715;-68
2022/03/10 09:24:52;;;;;;;13.63;10.03;;;;;;;-145.14;100.00;70583.66;4967073;28;20742;-68
2022/03/10 09:27:18;;;;;;;15.63;10.20;;;;;;;-145.14;100.00;70583.66;4967471;28;20317;-68
2022/03/10 09:29:44;;;;;;;14.10;10.40;;;;;;;-145.14;100.00;70583.66;4965504;28;20450;-69
2022/03/10 09:32:09;;;;;;;12.70;9.77;;;;;;;-145.14;100.00;70583.66;4971457;28;21101;-69
2022/03/10 09:34:35;;;;;;;12.87;9.80;;;;;;;-145.14;100.00;70583.66;4972192;28;20186;-68
2022/03/10 09:37:01;;;;;;;11.27;9.90;;;;;;;-145.14;100.00;70583.66;4972332;28;20249;-70
2022/03/10 09:39:26;;;;;;;13.87;10.50;;;;;;;-145.14;100.00;70583.66;4949641;28;20455;-69
2022/03/10 09:41:56;;;;;;;16.93;9.90;;;;;;;-145.14;100.00;70583.66;4975134;28;20194;-68
2022/03/10 09:44:21;;;;;;;13.17;10.17;;;;;;;-145.14;100.00;70583.66;4972802;28;20217;-68
2022/03/10 09:46:52;;;;;;;12.00;9.53;;;;;;;-145.14;100.00;70583.66;4963950;28;20977;-69
2022/03/10 09:49:22;;;;;;;12.57;10.43;;;;;;;-145.14;100.00;70583.66;4969260;28;20213;-68
2022/03/10 09:51:49;;;;;;;14.70;8.97;;;;;;;-145.14;100.00;70583.66;4972235;28;20544;-68
2022/03/10 09:54:14;;;;;;;11.70;9.23;;;;;;;-145.14;100.00;70583.66;4974894;28;20453;-68
2022/03/10 09:56:44;;;;;;;11.97;10.30;;;;;;;-145.14;100.00;70583.66;4973804;28;20455;-69
2022/03/10 09:59:10;;;;;;;11.17;9.60;;;;;;;-145.14;100.00;70583.66;4962453;28;20219;-69
2022/03/10 10:01:35;;;;;;;16.47;10.20;;;;;;;-145.14;100.00;70583.66;4968184;28;20448;-68
2022/03/10 10:04:01;;;;;;;14.23;10.70;;;;;;;-145.14;100.00;70583.66;4971403;28;20476;-68
2022/03/10 10:06:26;;;;;;;13.47;8.97;;;;;;;-145.14;100.00;70583.66;4973320;28;20197;-68
2022/03/10 10:08:56;;;;;;;12.77;9.87;;;;;;;-145.14;100.00;70583.66;4971163;28;20205;-69
2022/03/10 10:11:40;;;;;;;10.43;9.30;;;;;;;-145.14;100.00;70583.66;4969431;28;20216;-68
2022/03/10 10:14:05;;;;;;;15.13;10.03;;;;;;;-145.14;100.00;70583.66;4970585;28;20445;-69
2022/03/10 10:16:31;;;;;;;11.63;9.60;;;;;;;-145.14;100.00;70583.66;4959192;28;20453;-69
2022/03/10 10:18:58;;;;;;;13.23;9.80;;;;;;;-145.14;100.00;70583.66;4967493;28;20229;-68
2022/03/10 10:21:25;;;;;;;12.77;9.93;;;;;;;-145.14;100.00;70583.66;4972763;28;20189;-70
2022/03/10 10:23:53;;;;;;;10.03;8.30;;;;;;;-145.14;100.00;70583.66;4969203;28;20500;-69
2022/03/10 10:26:26;;;;;;;14.43;9.73;;;;;;;-145.14;100.00;70583.66;4969581;28;20486;-68
2022/03/10 10:28:52;;;;;;;12.87;9.33;;;;;;;-145.14;100.00;70583.66;4951938;28;20506;-69
2022/03/10 10:31:24;;;;;;;12.63;9.57;;;;;;;-145.14;100.00;70583.66;4962578;28;20452;-69
2022/03/10 10:34:11;;;;;;;9.87;8.90;;;;;;;-145.14;100.00;70583.66;4970474;28;20503;-69
2022/03/10 10:36:38;;;;;;;12.13;10.17;;;;;;;-145.14;100.00;70583.66;4974314;28;20445;-69
2022/03/10 10:39:10;;;;;;;12.23;8.90;;;;;;;-145.14;100.00;70583.66;4966802;28;20600;-68
2022/03/10 10:41:37;;;;;;;11.93;9.07;;;;;;;-145.14;100.00;70583.66;4965639;28;20452;-69
2022/03/10 10:44:12;;;;;;;13.53;10.33;;;;;;;-145.14;100.00;70583.66;4971950;28;21126;-69
2022/03/10 10:46:43;;;;;;;15.30;9.93;;;;;;;-145.14;100.00;70583.66;4962823;28;26511;-69
2022/03/10 10:49:15;;;;;;;12.23;9.30;;;;;;;-145.14;100.00;70583.66;4969111;28;20464;-68
2022/03/10 10:51:46;;;;;;;14.63;10.33;;;;;;;-145.14;100.00;70583.66;4972208;28;20502;-68
2022/03/10 10:54:32;;;;;;;15.03;9.50;;;;;;;-145.14;100.00;70583.66;4944963;28;20989;-69
2022/03/10 10:57:01;;;;;;;10.77;9.30;;;;;;;-145.14;100.00;70583.66;4969760;28;20519;-68
2022/03/10 10:59:35;;;;;;;11.77;9.70;;;;;;;-145.14;100.00;70583.66;4967952;28;20444;-68